Web Počasí Slunečno.cz™ (Podmínky, ePrivacy) používá cookies a personalizace pro reklamní účely. Pohybem po stránce vyjadřujete souhlas. Odejít

Aktuální počasí v Česku a ve světě - METAR

Seznam meteostanic umístěných nejčasteji na letišti v ČR a ve světě

Vyhledat místa podle abecedy:
A B C D E F G H I J K L M N O P Q R S T U V W X Y Z

Filtrovat:

ID stanice:
a/nebo
Název místa (fulltext):
 
Místo (ID)Naposledy načteno 
Doksany - Litoměřice (Doksany) 06.12.2021 20:00 UTC Zobrazit data
Místo: Doksany - Litoměřice
Teplota: 0 °C (pocitová: 13.1 °C)
Vítr: 0 m/s z(e) 0°
Počasí: skoro zataženo
Dohlednost: 12 km
Zákl. oblačnosti: 3/8 780 m;7/8 1500 m
Vlhkost: 75%
Dukovany (Dukovany) 06.12.2021 20:00 UTC Zobrazit data
Místo: Dukovany
Teplota: -1 °C (pocitová: -9.8 °C)
Vítr: 4 m/s z(e) 330°
Počasí: zataženo
Dohlednost: 17 km
Zákl. oblačnosti: 8/8 480 m
Vlhkost: 86%
Dakar (GOOY) 06.12.2021 20:00 UTC Zobrazit METAR
GOOY 062000Z 04004KT 8000 NSC 24/18 Q1011
Damascus (OSDI) 06.12.2021 20:00 UTC Zobrazit METAR
OSDI 062000Z 01006KT CAVOK 08/01 Q1023
Debrecen (LHDC) 06.12.2021 19:45 UTC Zobrazit METAR
LHDC 061945Z AUTO 35007KT 320V020 9999 BKN042 BKN076 BKN136 03/01 Q1009 NOSIG
Delhi (VIDP) 06.12.2021 20:00 UTC Zobrazit METAR
VIDP 062000Z 00000KT 2500 BR NSC 16/15 Q1018 NOSIG
Dhaka (VGZR) Zatím nenačteno  
Diego Garcia (FJDG) 06.12.2021 17:55 UTC Zobrazit METAR
FJDG 061755Z 09007KT 9999 FEW020 FEW250 28/26 A2987 RMK SLP112 8/101 T02810260 10293 20278 403140258 54000
Djibouti (HDAM) 01.10.2021 13:00 UTC Zobrazit METAR
HDAM 011300Z 07009KT 9999 FEW023 36/22 Q1003
Dnipropetrovs'k (UKDD) 12.08.2013 14:00 UTC Zobrazit METAR
UKDD 121400Z CAVOK 33/13 Q1012 08090070 NOSIG
Dodoma (HTDO) 05.12.2021 18:00 UTC Zobrazit METAR
HTDO 051800Z 09015KT 9999 FEW024 SCT090 22/16 Q1019 NOSIG
Doha (OTBD) 06.12.2021 20:00 UTC Zobrazit METAR
OTBD 062000Z AUTO 13002KT CAVOK 19/11 Q1018 NOSIG
Dortmund (EDLW) 06.12.2021 19:50 UTC Zobrazit METAR
EDLW 061950Z 17008KT 120V200 9999 FEW029 03/M01 Q1008
Dresden (EDDC) 06.12.2021 19:50 UTC Zobrazit METAR
EDDC 061950Z 14002KT 4000 BR SCT007 BKN022 M01/M01 Q1013 TEMPO BKN007
Dublin (EIDW) 06.12.2021 20:00 UTC Zobrazit METAR
EIDW 062000Z 24011KT 210V280 9999 FEW015 02/00 Q1006 NOSIG
Dubrovnik (LDDU) 06.12.2021 20:00 UTC Zobrazit METAR
LDDU 062000Z 03022KT 340V080 9999 -RA FEW032 BKN045 08/03 Q1002 TEMPO 03020G30KT
Dushanbe (UTDD) Zatím nenačteno  
Dusseldorf (EDDL) 06.12.2021 19:50 UTC Zobrazit METAR
EDDL 061950Z 15013KT 9999 FEW016 BKN030 04/M00 Q1007 BECMG BKN010
Dzaoudzi (FMCZ) 06.12.2021 20:00 UTC Zobrazit METAR
FMCZ 062000Z AUTO 29007KT CAVOK 28/24 Q1014 NOSIG
Reklama

Reklama


Newslettter

Počasí na Váš email

Každý den Vám pošleme předpověď
Emaily chodí ráno a bez reklamy



Odhlásit newsletter

Reklama